createdAt,value
2019-03-17T00:00:43.527Z,7.30
2019-03-17T00:03:48.668Z,6.70
2019-03-17T00:06:53.775Z,6.73
2019-03-17T00:09:58.997Z,6.20
2019-03-17T00:13:04.171Z,6.53
2019-03-17T00:16:09.119Z,6.13
2019-03-17T00:19:14.164Z,25.10
2019-03-17T00:22:19.208Z,12.67
2019-03-17T00:25:24.316Z,7.50
2019-03-17T00:28:29.342Z,6.43
2019-03-17T00:31:34.384Z,7.10
2019-03-17T00:34:43.991Z,6.53
2019-03-17T00:37:46.179Z,5.93
2019-03-17T00:40:51.207Z,7.80
2019-03-17T00:43:56.166Z,7.97
2019-03-17T00:47:01.195Z,7.63
2019-03-17T00:50:06.644Z,6.27
2019-03-17T00:53:11.770Z,5.57
2019-03-17T00:56:16.807Z,5.60
2019-03-17T00:59:21.771Z,5.90
2019-03-17T01:02:26.922Z,5.17
2019-03-17T01:05:31.946Z,5.07
2019-03-17T01:08:37.110Z,5.73
2019-03-17T01:11:42.802Z,5.80
2019-03-17T01:14:47.912Z,5.70
2019-03-17T01:17:53.002Z,4.90
2019-03-17T01:20:57.938Z,4.87
2019-03-17T01:24:03.047Z,4.70
2019-03-17T01:27:08.070Z,4.70
2019-03-17T01:30:13.416Z,4.80
2019-03-17T01:33:18.375Z,4.60
2019-03-17T01:36:23.394Z,5.80
2019-03-17T01:39:28.730Z,4.90
2019-03-17T01:42:33.827Z,5.13
2019-03-17T01:45:38.850Z,6.00
2019-03-17T01:48:45.550Z,5.23
2019-03-17T01:51:50.510Z,5.03
2019-03-17T01:54:55.642Z,6.33
2019-03-17T01:58:00.622Z,5.43
2019-03-17T02:01:06.023Z,4.87
2019-03-17T02:04:11.088Z,4.70
2019-03-17T02:07:16.079Z,5.53
2019-03-17T02:10:21.046Z,4.50
2019-03-17T02:13:26.067Z,4.97
2019-03-17T02:16:31.101Z,5.70
2019-03-17T02:19:36.120Z,5.50
2019-03-17T02:22:41.138Z,5.53
2019-03-17T02:25:48.359Z,5.87
2019-03-17T02:28:53.336Z,5.47
2019-03-17T02:31:58.344Z,5.23
2019-03-17T02:35:03.473Z,5.50
2019-03-17T02:38:08.646Z,5.00
2019-03-17T02:41:13.673Z,4.90
2019-03-17T02:44:18.807Z,4.77
2019-03-17T02:47:23.818Z,5.53
2019-03-17T02:50:28.836Z,5.23
2019-03-17T02:53:33.933Z,4.73
2019-03-17T02:56:38.951Z,5.40
2019-03-17T02:59:44.020Z,5.03
2019-03-17T03:02:48.960Z,5.33
2019-03-17T03:05:55.625Z,5.20
2019-03-17T03:09:00.945Z,5.03
2019-03-17T03:12:06.106Z,5.40
2019-03-17T03:15:11.582Z,4.70
2019-03-17T03:18:16.536Z,4.40
2019-03-17T03:21:21.594Z,4.70
2019-03-17T03:24:26.714Z,4.30
2019-03-17T03:27:31.798Z,4.40
2019-03-17T03:30:36.897Z,4.63
2019-03-17T03:33:41.920Z,4.37
2019-03-17T03:36:47.031Z,4.13
2019-03-17T03:39:52.091Z,4.27
2019-03-17T03:42:57.124Z,3.77
2019-03-17T03:46:02.149Z,3.77
2019-03-17T03:49:07.247Z,4.07
2019-03-17T03:52:12.348Z,3.37
2019-03-17T03:55:17.460Z,3.50
2019-03-17T03:58:22.500Z,3.33
2019-03-17T04:01:27.601Z,3.23
2019-03-17T04:04:32.535Z,3.57
2019-03-17T04:07:37.631Z,2.90
2019-03-17T04:10:42.671Z,3.60
2019-03-17T04:13:47.697Z,2.70
2019-03-17T04:16:52.642Z,2.83
2019-03-17T04:19:57.670Z,3.03
2019-03-17T04:23:02.792Z,3.13
2019-03-17T04:26:07.894Z,3.10
2019-03-17T04:29:12.831Z,3.83
2019-03-17T04:32:17.787Z,3.23
2019-03-17T04:35:22.836Z,3.50
2019-03-17T04:38:27.859Z,2.93
2019-03-17T04:41:32.811Z,3.67
2019-03-17T04:44:37.760Z,2.90
2019-03-17T04:47:44.013Z,2.77
2019-03-17T04:50:49.094Z,2.77
2019-03-17T04:53:54.136Z,3.40
2019-03-17T04:56:59.109Z,3.07
2019-03-17T05:00:04.591Z,3.70
2019-03-17T05:03:09.564Z,4.13
2019-03-17T05:06:14.562Z,3.50
2019-03-17T05:09:19.525Z,4.10
2019-03-17T05:12:24.489Z,4.00
2019-03-17T05:15:29.527Z,3.47
2019-03-17T05:18:34.543Z,3.10
2019-03-17T05:21:39.515Z,3.20
2019-03-17T05:24:44.534Z,2.83
2019-03-17T05:27:49.658Z,3.30
2019-03-17T05:30:54.822Z,3.20
2019-03-17T05:33:59.891Z,3.87
2019-03-17T05:37:06.514Z,2.93
2019-03-17T05:40:11.975Z,3.10
2019-03-17T05:43:16.906Z,4.10
2019-03-17T05:46:21.961Z,3.50
2019-03-17T05:49:26.895Z,3.17
2019-03-17T05:52:31.959Z,3.60
2019-03-17T05:55:36.968Z,3.40
2019-03-17T05:58:41.929Z,3.10
2019-03-17T06:01:46.872Z,4.03
2019-03-17T06:04:51.975Z,3.00
2019-03-17T06:07:57.000Z,3.00
2019-03-17T06:11:02.134Z,3.57
2019-03-17T06:14:07.160Z,3.27
2019-03-17T06:17:12.492Z,2.90
2019-03-17T06:20:17.953Z,2.73
2019-03-17T06:23:23.168Z,3.20
2019-03-17T06:26:28.335Z,3.20
2019-03-17T06:29:33.307Z,3.70
2019-03-17T06:32:38.323Z,3.03
2019-03-17T06:35:43.700Z,3.23
2019-03-17T06:38:48.706Z,3.60
2019-03-17T06:41:53.726Z,3.10
2019-03-17T06:44:58.668Z,3.37
2019-03-17T06:48:04.096Z,3.67
2019-03-17T06:51:09.044Z,3.13
2019-03-17T06:54:14.479Z,3.60
2019-03-17T06:57:19.489Z,3.37
2019-03-17T07:00:24.602Z,3.80
2019-03-17T07:03:29.681Z,3.50
2019-03-17T07:06:34.875Z,3.63
2019-03-17T07:09:40.415Z,3.57
2019-03-17T07:12:46.024Z,3.30
2019-03-17T07:15:51.170Z,3.10
2019-03-17T07:18:56.462Z,3.53
2019-03-17T07:22:01.727Z,3.50
2019-03-17T07:25:07.254Z,3.30
2019-03-17T07:28:12.709Z,2.90
2019-03-17T07:31:18.171Z,2.80
2019-03-17T07:34:23.124Z,3.27
2019-03-17T07:37:28.242Z,4.30
2019-03-17T07:40:33.326Z,3.00
2019-03-17T07:43:38.366Z,2.60
2019-03-17T07:46:43.452Z,3.77
2019-03-17T07:49:48.513Z,2.77
2019-03-17T07:52:53.488Z,2.97
2019-03-17T07:55:58.467Z,3.33
2019-03-17T07:59:03.471Z,2.83
2019-03-17T08:02:08.807Z,3.20
2019-03-17T08:05:13.765Z,2.73
2019-03-17T08:08:20.877Z,2.93
2019-03-17T08:11:25.851Z,3.37
2019-03-17T08:14:30.831Z,3.23
2019-03-17T08:17:35.879Z,3.20
2019-03-17T08:20:40.962Z,3.37
2019-03-17T08:23:45.907Z,3.10
2019-03-17T08:26:50.956Z,3.20
2019-03-17T08:29:56.064Z,4.20
2019-03-17T08:33:01.192Z,2.97
2019-03-17T08:36:06.296Z,2.80
2019-03-17T08:39:11.438Z,4.00
2019-03-17T08:42:16.540Z,3.20
2019-03-17T08:45:21.659Z,2.80
2019-03-17T08:48:26.611Z,2.80
2019-03-17T08:51:31.910Z,3.00
2019-03-17T08:54:37.330Z,2.37
2019-03-17T08:57:42.493Z,3.37
2019-03-17T09:00:47.635Z,2.53
2019-03-17T09:03:52.599Z,2.70
2019-03-17T09:06:57.611Z,2.30
2019-03-17T09:10:02.820Z,2.77
2019-03-17T09:13:07.826Z,2.13
2019-03-17T09:16:12.942Z,2.00
2019-03-17T09:19:17.967Z,2.40
2019-03-17T09:22:23.018Z,2.20
2019-03-17T09:25:27.972Z,2.30
2019-03-17T09:28:33.029Z,2.47
2019-03-17T09:31:38.009Z,2.30
2019-03-17T09:34:43.043Z,1.60
2019-03-17T09:37:48.237Z,1.30
2019-03-17T09:40:53.465Z,1.70
2019-03-17T09:43:58.481Z,1.40
2019-03-17T09:47:03.444Z,1.70
2019-03-17T09:50:09.571Z,1.47
2019-03-17T09:53:14.585Z,1.50
2019-03-17T09:56:19.539Z,1.23
2019-03-17T09:59:24.583Z,1.43
2019-03-17T10:02:29.839Z,1.30
2019-03-17T10:05:35.123Z,1.20
2019-03-17T10:08:40.080Z,1.40
2019-03-17T10:11:45.226Z,1.20
2019-03-17T10:14:50.333Z,1.40
2019-03-17T10:17:55.475Z,1.57
2019-03-17T10:21:00.528Z,2.03
2019-03-17T10:24:05.646Z,1.70
2019-03-17T10:27:10.687Z,1.50
2019-03-17T10:30:15.840Z,1.30
2019-03-17T10:33:20.872Z,1.77
2019-03-17T10:36:25.846Z,1.47
2019-03-17T10:39:30.875Z,1.80
2019-03-17T10:42:35.910Z,1.90
2019-03-17T10:45:40.946Z,1.60
2019-03-17T10:48:46.059Z,1.63
2019-03-17T10:51:51.014Z,1.83
2019-03-17T10:54:56.156Z,2.07
2019-03-17T10:58:01.245Z,2.00
2019-03-17T11:01:06.358Z,1.53
2019-03-17T11:04:11.382Z,2.37
2019-03-17T11:07:16.426Z,1.77
2019-03-17T11:10:21.448Z,1.90
2019-03-17T11:13:26.500Z,1.47
2019-03-17T11:16:31.527Z,1.50
2019-03-17T11:19:36.501Z,2.00
2019-03-17T11:22:41.586Z,1.73
2019-03-17T11:25:46.634Z,1.93
2019-03-17T11:28:51.739Z,1.70
2019-03-17T11:31:56.871Z,1.80
2019-03-17T11:35:01.898Z,1.60
2019-03-17T11:38:06.867Z,2.10
2019-03-17T11:41:11.895Z,1.53
2019-03-17T11:44:16.950Z,1.80
2019-03-17T11:47:21.975Z,3.07
2019-03-17T11:50:27.120Z,2.00
2019-03-17T11:53:32.152Z,2.43
2019-03-17T11:56:37.272Z,2.13
2019-03-17T11:59:42.391Z,5.00
2019-03-17T12:02:47.588Z,2.83
2019-03-17T12:05:52.679Z,2.60
2019-03-17T12:08:57.727Z,2.40
2019-03-17T12:12:02.831Z,2.80
2019-03-17T12:15:09.373Z,2.73
2019-03-17T12:18:14.483Z,2.30
2019-03-17T12:21:19.528Z,1.70
2019-03-17T12:24:24.631Z,2.20
2019-03-17T12:27:29.742Z,1.80
2019-03-17T12:30:34.852Z,2.20
2019-03-17T12:33:39.803Z,2.40
2019-03-17T12:36:44.776Z,2.37
2019-03-17T12:40:01.845Z,2.20
2019-03-17T12:42:56.466Z,2.50
2019-03-17T12:46:01.511Z,2.90
2019-03-17T12:49:06.550Z,2.60
2019-03-17T12:52:11.595Z,2.80
2019-03-17T12:55:16.686Z,2.60
2019-03-17T12:58:21.655Z,2.93
2019-03-17T13:01:26.618Z,2.37
2019-03-17T13:04:32.195Z,2.27
2019-03-17T13:07:37.358Z,3.03
2019-03-17T13:10:42.471Z,2.50
2019-03-17T13:13:47.430Z,2.33
2019-03-17T13:16:52.416Z,2.53
2019-03-17T13:19:57.431Z,3.67
2019-03-17T13:23:02.392Z,3.13
2019-03-17T13:26:10.202Z,4.03
2019-03-17T13:29:14.306Z,3.00
2019-03-17T13:32:19.258Z,2.50
2019-03-17T13:35:24.379Z,3.37
2019-03-17T13:38:29.398Z,4.97
2019-03-17T13:41:34.442Z,4.87
2019-03-17T13:44:39.468Z,5.50
2019-03-17T13:47:44.528Z,3.00
2019-03-17T13:50:49.491Z,3.20
2019-03-17T13:53:55.400Z,4.73
2019-03-17T13:57:00.450Z,3.30
2019-03-17T14:00:06.815Z,2.70
2019-03-17T14:03:11.924Z,3.47
2019-03-17T14:06:16.971Z,3.33
2019-03-17T14:09:21.990Z,3.73
2019-03-17T14:12:26.971Z,2.80
2019-03-17T14:15:32.054Z,2.90
2019-03-17T14:18:37.014Z,3.50
2019-03-17T14:21:42.121Z,3.13
2019-03-17T14:24:47.106Z,2.70
2019-03-17T14:27:52.075Z,3.00
2019-03-17T14:30:57.146Z,2.13
2019-03-17T14:34:02.179Z,2.57
2019-03-17T14:37:07.219Z,2.80
2019-03-17T14:40:13.114Z,2.17
2019-03-17T14:43:18.236Z,2.00
2019-03-17T14:46:23.212Z,3.30
2019-03-17T14:49:28.283Z,1.53
2019-03-17T14:52:33.307Z,2.00
2019-03-17T14:55:38.355Z,1.43
2019-03-17T14:58:43.375Z,2.90
2019-03-17T15:01:48.508Z,1.10
2019-03-17T15:04:53.454Z,0.60
2019-03-17T15:07:58.575Z,0.83
2019-03-17T15:11:05.992Z,0.70
2019-03-17T15:14:10.415Z,0.80
2019-03-17T15:17:15.446Z,1.13
2019-03-17T15:20:20.683Z,1.23
2019-03-17T15:23:25.695Z,0.93
2019-03-17T15:26:30.743Z,0.67
2019-03-17T15:29:35.939Z,1.80
2019-03-17T15:32:41.134Z,2.43
2019-03-17T15:35:46.548Z,1.17
2019-03-17T15:38:51.670Z,1.60
2019-03-17T15:41:56.747Z,1.17
2019-03-17T15:45:01.753Z,1.30
2019-03-17T15:48:06.832Z,1.40
2019-03-17T15:51:20.287Z,1.20
2019-03-17T15:54:21.452Z,1.53
2019-03-17T15:57:25.919Z,1.53
2019-03-17T16:00:31.134Z,1.93
2019-03-17T16:03:36.169Z,2.47
2019-03-17T16:06:44.435Z,2.30
2019-03-17T16:09:49.546Z,1.60
2019-03-17T16:12:54.566Z,1.60
2019-03-17T16:15:59.538Z,1.97
2019-03-17T16:19:04.618Z,1.30
2019-03-17T16:22:09.675Z,1.33
2019-03-17T16:25:15.472Z,1.07
2019-03-17T16:28:20.486Z,1.43
2019-03-17T16:31:25.708Z,1.40
2019-03-17T16:34:30.739Z,1.60
2019-03-17T16:37:35.760Z,1.30
2019-03-17T16:40:40.882Z,1.77
2019-03-17T16:43:45.890Z,1.27
2019-03-17T16:46:50.942Z,1.20
2019-03-17T16:49:58.789Z,1.40
2019-03-17T16:53:02.718Z,1.77
2019-03-17T16:56:07.911Z,0.93
2019-03-17T16:59:12.898Z,1.17
2019-03-17T17:02:17.835Z,1.43
2019-03-17T17:05:22.954Z,1.00
2019-03-17T17:08:28.243Z,1.00
2019-03-17T17:11:33.363Z,1.40
2019-03-17T17:14:38.446Z,1.13
2019-03-17T17:17:43.559Z,1.07
2019-03-17T17:20:48.879Z,2.30
2019-03-17T17:23:53.835Z,2.10
2019-03-17T17:26:58.926Z,1.60
2019-03-17T17:30:05.205Z,1.80
2019-03-17T17:33:10.238Z,1.33
2019-03-17T17:36:15.363Z,1.30
2019-03-17T17:39:20.403Z,1.17
2019-03-17T17:42:25.557Z,1.60
2019-03-17T17:45:30.843Z,2.03
2019-03-17T17:48:36.260Z,1.70
2019-03-17T17:51:41.254Z,2.07
2019-03-17T17:54:46.295Z,1.50
2019-03-17T17:57:52.845Z,1.40
2019-03-17T18:00:57.880Z,1.40
2019-03-17T18:04:02.891Z,2.07
2019-03-17T18:07:08.014Z,1.40
2019-03-17T18:10:13.114Z,2.17
2019-03-17T18:13:18.077Z,4.57
2019-03-17T18:16:23.086Z,2.20
2019-03-17T18:19:28.143Z,2.10
2019-03-17T18:22:33.078Z,1.60
2019-03-17T18:25:38.201Z,1.90
2019-03-17T18:28:43.211Z,2.00
2019-03-17T18:31:48.198Z,1.50
2019-03-17T18:34:53.303Z,2.00
2019-03-17T18:37:58.548Z,2.67
2019-03-17T18:41:03.694Z,2.10
2019-03-17T18:44:08.750Z,1.90
2019-03-17T18:47:13.843Z,2.00
2019-03-17T18:50:20.702Z,1.57
2019-03-17T18:53:25.762Z,4.23
2019-03-17T18:56:30.726Z,3.50
2019-03-17T18:59:35.755Z,2.40
2019-03-17T19:02:40.838Z,3.20
2019-03-17T19:05:46.158Z,2.27
2019-03-17T19:08:51.390Z,2.93
2019-03-17T19:11:56.462Z,2.80
2019-03-17T19:15:01.583Z,3.20
2019-03-17T19:18:06.605Z,2.67
2019-03-17T19:21:11.773Z,2.73
2019-03-17T19:24:16.862Z,2.40
2019-03-17T19:27:21.935Z,2.50
2019-03-17T19:30:27.041Z,3.13
2019-03-17T19:33:32.082Z,2.13
2019-03-17T19:36:37.326Z,2.50
2019-03-17T19:39:42.303Z,2.80
2019-03-17T19:42:58.154Z,3.30
2019-03-17T19:45:54.111Z,2.90
2019-03-17T19:48:59.059Z,2.93
2019-03-17T19:52:04.156Z,2.70
2019-03-17T19:55:09.427Z,3.00
2019-03-17T19:58:14.499Z,2.50
2019-03-17T20:01:19.522Z,2.20
2019-03-17T20:04:31.030Z,2.50
2019-03-17T20:07:31.309Z,2.30
2019-03-17T20:10:36.355Z,2.70
2019-03-17T20:13:41.311Z,2.70
2019-03-17T20:16:46.431Z,3.10
2019-03-17T20:19:51.523Z,2.30
2019-03-17T20:22:56.634Z,2.13
2019-03-17T20:26:01.580Z,2.00
2019-03-17T20:29:06.538Z,2.10
2019-03-17T20:32:11.551Z,1.93
2019-03-17T20:35:16.692Z,2.33
2019-03-17T20:38:21.758Z,2.83
2019-03-17T20:41:26.875Z,3.80
2019-03-17T20:44:31.982Z,2.60
2019-03-17T20:47:37.018Z,2.13
2019-03-17T20:50:42.180Z,3.10
2019-03-17T20:53:47.227Z,2.73
2019-03-17T20:56:52.495Z,2.43
2019-03-17T20:59:57.546Z,2.60
2019-03-17T21:03:02.550Z,2.10
2019-03-17T21:06:07.598Z,2.63
2019-03-17T21:09:12.649Z,3.00
2019-03-17T21:12:17.697Z,2.70
2019-03-17T21:15:22.787Z,2.53
2019-03-17T21:18:27.752Z,2.30
2019-03-17T21:21:32.831Z,2.17
2019-03-17T21:24:37.799Z,2.57
2019-03-17T21:27:42.894Z,2.40
2019-03-17T21:30:47.858Z,2.80
2019-03-17T21:33:52.815Z,3.00
2019-03-17T21:36:58.263Z,2.60
2019-03-17T21:40:03.457Z,3.13
2019-03-17T21:43:08.567Z,3.60
2019-03-17T21:46:13.693Z,3.10
2019-03-17T21:49:18.820Z,4.10
2019-03-17T21:52:23.835Z,4.67
2019-03-17T21:55:29.142Z,4.33
2019-03-17T21:58:34.079Z,3.47
2019-03-17T22:01:39.111Z,4.30
2019-03-17T22:04:44.222Z,4.47
2019-03-17T22:07:50.891Z,4.90
2019-03-17T22:10:56.325Z,4.33
2019-03-17T22:14:11.480Z,4.37
2019-03-17T22:17:08.206Z,4.30
2019-03-17T22:20:13.423Z,3.77
2019-03-17T22:23:18.363Z,3.63
2019-03-17T22:26:23.407Z,3.77
2019-03-17T22:29:28.438Z,3.23
2019-03-17T22:32:33.478Z,2.77
2019-03-17T22:35:38.551Z,2.63
2019-03-17T22:38:43.579Z,3.33
2019-03-17T22:41:48.593Z,3.60
2019-03-17T22:44:53.626Z,2.73
2019-03-17T22:47:58.727Z,3.33
2019-03-17T22:51:03.859Z,2.83
2019-03-17T22:54:08.987Z,3.07
2019-03-17T22:57:13.972Z,2.90
2019-03-17T23:00:23.819Z,2.93
2019-03-17T23:03:29.163Z,2.83
2019-03-17T23:06:34.193Z,2.50
2019-03-17T23:09:39.294Z,2.20
2019-03-17T23:12:44.315Z,2.80
2019-03-17T23:15:49.380Z,1.80
2019-03-17T23:18:54.399Z,2.40
2019-03-17T23:21:59.430Z,1.60
2019-03-17T23:25:04.989Z,2.30
2019-03-17T23:28:10.079Z,2.03
2019-03-17T23:31:15.123Z,1.70
2019-03-17T23:34:20.224Z,2.70
2019-03-17T23:37:25.236Z,2.50
2019-03-17T23:40:30.201Z,2.00
2019-03-17T23:43:35.297Z,2.70
2019-03-17T23:46:42.595Z,2.10
2019-03-17T23:49:46.966Z,2.50
2019-03-17T23:52:52.080Z,2.53
2019-03-17T23:55:57.107Z,2.43
2019-03-17T23:59:02.151Z,2.20
